This is the latest recevied weather packets stored in our database for station/object SP3VBV-2. If no packets are shown the sender has not sent any weather packets the latest 10 day(s).
| Time | Temp. | Humidity | Pressure | Rain* | Wind** | Luminosity | Snow |
|---|---|---|---|---|---|---|---|
| 1778091124 | 17.22° C | 10% | - | - | - | - | - |
| 1778090524 | 17.22° C | 98% | 1003.9 hPa | - | - | - | - |
| 1778089924 | 17.78° C | 88% | 1003.7 hPa | - | - | - | - |
| 1778089324 | 17.78° C | 85% | 1003.7 hPa | - | - | - | - |
| 1778088724 | 17.78° C | 84% | 1003.7 hPa | - | - | - | - |
| 1778088124 | 17.78° C | 89% | 1003.8 hPa | - | - | - | - |
| 1778087537 | 17.78° C | 85% | 1003.9 hPa | - | - | - | - |
| 1778086924 | 17.78° C | 79% | 1004 hPa | - | - | - | - |
| 1778086324 | 17.22° C | 81% | 1004.2 hPa | - | - | - | - |
| 1778085724 | 17.78° C | 77% | 1004.3 hPa | - | - | - | - |
| 1778085124 | 19.44° C | 62% | 1004.4 hPa | - | - | - | - |
| 1778083932 | 21.67° C | 49% | 1004.2 hPa | - | - | - | - |
| 1778082730 | 22.22° C | 48% | 1004.2 hPa | - | - | - | - |
| 1778082131 | 21.67° C | 47% | 1004.2 hPa | - | - | - | - |
| 1778081531 | 21.67° C | 46% | 1004.3 hPa | - | - | - | - |
| 1778080934 | 22.22° C | 44% | 1004.2 hPa | - | - | - | - |
| 1778080331 | 22.78° C | 43% | 1004.4 hPa | - | - | - | - |
| 1778079731 | 23.33° C | 40% | 1004.3 hPa | - | - | - | - |
| 1778079130 | 23.89° C | 42% | 1004.4 hPa | - | - | - | - |
| 1778078531 | 23.33° C | 41% | 1004.5 hPa | - | - | - | - |
| 1778077930 | 22.78° C | 44% | 1004.6 hPa | - | - | - | - |
| 1778077332 | 23.33° C | 42% | 1004.5 hPa | - | - | - | - |
| 1778076730 | 23.33° C | 43% | 1004.6 hPa | - | - | - | - |
| 1778076143 | 23.33° C | 46% | 1004.6 hPa | - | - | - | - |
| 1778075530 | 22.22° C | 44% | 1004.7 hPa | - | - | - | - |
* Rain since midnight (hover to see other rain measurements)
** Current wind speed in m/s (hover to see current wind gust speed)